Terminal Aerodrome Forecast
Issued by NWS

Home | Current Version | Previous Version | Graphics & Text | Print | Product List | Glossary On
Versions: 1 2 3 4 5 6 7 8 9 10 11 12 13 14 15 16
854
FTUS43 KGRB 261458 AAA
TAFAUW
TAF AMD
KAUW 261458Z 2615/2712 27017G28KT P6SM SCT035 OVC090
     FM270000 27016KT P6SM BKN080 PROB30 2700/2705 4SM -SHRA OVC040
     FM271000 27011KT P6SM BKN030=

USA.gov is the U.S. government's official web portal to all federal, state and local government web resources and services.